createdAt,value
2023-05-17T00:00:08.202Z,76
2023-05-17T00:01:08.632Z,76
2023-05-17T00:02:08.730Z,76
2023-05-17T00:03:09.300Z,76
2023-05-17T00:07:08.616Z,75
2023-05-17T00:08:08.454Z,75
2023-05-17T00:10:08.592Z,75
2023-05-17T00:11:08.533Z,75
2023-05-17T00:12:07.288Z,75
2023-05-17T00:13:08.312Z,75
2023-05-17T00:15:07.332Z,75
2023-05-17T00:16:08.286Z,75
2023-05-17T00:17:09.223Z,75
2023-05-17T00:18:09.415Z,75
2023-05-17T00:19:08.593Z,75
2023-05-17T00:20:08.669Z,75
2023-05-17T00:21:08.600Z,75
2023-05-17T00:26:09.014Z,75
2023-05-17T00:27:09.019Z,75
2023-05-17T00:29:08.109Z,75
2023-05-17T00:30:08.671Z,75
2023-05-17T00:31:08.180Z,75
2023-05-17T00:32:08.475Z,75
2023-05-17T00:33:08.971Z,75
2023-05-17T00:34:09.138Z,75
2023-05-17T00:35:08.559Z,75
2023-05-17T00:36:08.658Z,75
2023-05-17T00:37:08.277Z,75
2023-05-17T00:38:07.905Z,75
2023-05-17T00:41:07.640Z,75
2023-05-17T00:42:08.591Z,75
2023-05-17T00:43:08.718Z,75
2023-05-17T00:44:08.583Z,75
2023-05-17T00:45:08.992Z,75
2023-05-17T00:46:08.546Z,75
2023-05-17T00:47:08.705Z,75
2023-05-17T00:48:09.444Z,75
2023-05-17T00:49:08.599Z,75
2023-05-17T00:50:08.535Z,75
2023-05-17T00:51:08.606Z,75
2023-05-17T00:52:08.742Z,75
2023-05-17T00:53:08.311Z,75
2023-05-17T00:54:08.391Z,75
2023-05-17T00:55:09.266Z,75
2023-05-17T00:56:08.396Z,75
2023-05-17T00:57:09.210Z,75
2023-05-17T00:58:08.317Z,75
2023-05-17T00:59:08.568Z,75
2023-05-17T01:00:08.830Z,75
2023-05-17T01:05:08.418Z,75
2023-05-17T01:06:08.875Z,75
2023-05-17T01:07:08.117Z,75
2023-05-17T01:08:07.500Z,75
2023-05-17T01:09:08.672Z,75
2023-05-17T01:10:08.331Z,75
2023-05-17T01:11:09.117Z,75
2023-05-17T01:12:09.116Z,75
2023-05-17T01:16:08.962Z,75
2023-05-17T01:17:08.900Z,75
2023-05-17T01:18:09.168Z,75
2023-05-17T01:19:09.184Z,75
2023-05-17T01:20:09.980Z,75
2023-05-17T01:21:08.924Z,75
2023-05-17T01:22:08.732Z,75
2023-05-17T01:23:08.795Z,75
2023-05-17T01:24:09.262Z,75
2023-05-17T01:25:08.723Z,75
2023-05-17T01:26:09.037Z,75
2023-05-17T01:30:08.678Z,75
2023-05-17T01:31:08.179Z,75
2023-05-17T01:32:08.678Z,75
2023-05-17T01:33:09.367Z,75
2023-05-17T01:34:09.666Z,75
2023-05-17T01:35:08.590Z,75
2023-05-17T01:36:08.850Z,75
2023-05-17T01:37:07.541Z,75
2023-05-17T01:38:08.728Z,75
2023-05-17T01:39:08.491Z,75
2023-05-17T01:40:08.586Z,75
2023-05-17T01:41:08.669Z,75
2023-05-17T01:43:08.492Z,75
2023-05-17T01:44:08.512Z,75
2023-05-17T01:45:08.501Z,75
2023-05-17T01:46:08.393Z,75
2023-05-17T01:47:08.333Z,75
2023-05-17T01:48:08.554Z,75
2023-05-17T01:49:08.653Z,75
2023-05-17T01:51:08.367Z,75
2023-05-17T01:52:08.483Z,75
2023-05-17T01:53:09.277Z,75
2023-05-17T01:54:08.771Z,75
2023-05-17T01:55:08.233Z,75
2023-05-17T01:56:10.425Z,75
2023-05-17T01:58:08.376Z,75
2023-05-17T01:59:08.704Z,75
2023-05-17T02:00:09.041Z,75
2023-05-17T02:01:08.609Z,75
2023-05-17T02:02:09.256Z,75
2023-05-17T02:03:08.052Z,75
2023-05-17T02:04:08.472Z,75
2023-05-17T02:06:08.260Z,75
2023-05-17T02:07:08.557Z,75
2023-05-17T02:09:08.099Z,75
2023-05-17T02:10:09.046Z,75
2023-05-17T02:11:08.784Z,75
2023-05-17T02:12:09.039Z,75
2023-05-17T02:13:08.985Z,75
2023-05-17T02:16:08.429Z,75
2023-05-17T02:17:08.721Z,75
2023-05-17T02:18:09.267Z,75
2023-05-17T02:19:08.897Z,75
2023-05-17T02:20:08.980Z,75
2023-05-17T02:21:08.402Z,75
2023-05-17T02:22:08.534Z,75
2023-05-17T02:23:08.751Z,75
2023-05-17T02:24:09.118Z,75
2023-05-17T02:25:08.545Z,75
2023-05-17T02:26:08.440Z,75
2023-05-17T02:27:08.823Z,75
2023-05-17T02:28:08.466Z,75
2023-05-17T02:31:08.417Z,75
2023-05-17T02:32:08.574Z,75
2023-05-17T02:33:09.211Z,75
2023-05-17T02:34:09.494Z,75
2023-05-17T02:35:08.286Z,75
2023-05-17T02:36:08.629Z,75
2023-05-17T02:37:09.110Z,75
2023-05-17T02:38:08.517Z,75
2023-05-17T02:39:07.664Z,75
2023-05-17T02:40:08.448Z,75
2023-05-17T02:42:08.219Z,75
2023-05-17T02:44:08.658Z,75
2023-05-17T02:45:08.698Z,75
2023-05-17T02:48:08.458Z,75
2023-05-17T02:49:09.033Z,75
2023-05-17T02:50:09.159Z,75
2023-05-17T02:51:08.271Z,75
2023-05-17T02:52:08.689Z,75
2023-05-17T02:53:09.212Z,75
2023-05-17T02:54:08.926Z,75
2023-05-17T02:56:08.874Z,75
2023-05-17T02:57:08.756Z,75
2023-05-17T02:58:08.763Z,75
2023-05-17T02:59:08.998Z,75
2023-05-17T03:00:09.320Z,75
2023-05-17T03:01:08.307Z,75
2023-05-17T03:02:08.455Z,75
2023-05-17T03:03:09.373Z,75
2023-05-17T03:04:08.469Z,75
2023-05-17T03:05:07.965Z,75
2023-05-17T03:07:11.649Z,75
2023-05-17T03:10:08.624Z,75
2023-05-17T03:11:07.853Z,75
2023-05-17T03:13:08.723Z,75
2023-05-17T03:14:08.463Z,75
2023-05-17T03:15:08.582Z,75
2023-05-17T03:16:08.694Z,75
2023-05-17T03:17:08.454Z,75
2023-05-17T03:18:08.925Z,75
2023-05-17T03:19:09.378Z,74
2023-05-17T03:25:08.181Z,74
2023-05-17T03:26:09.091Z,74
2023-05-17T03:27:08.709Z,74
2023-05-17T03:28:08.509Z,74
2023-05-17T03:29:08.633Z,74
2023-05-17T03:30:08.935Z,74
2023-05-17T03:31:08.517Z,74
2023-05-17T03:32:07.376Z,74
2023-05-17T03:33:08.598Z,74
2023-05-17T03:34:08.169Z,74
2023-05-17T03:38:07.345Z,74
2023-05-17T03:39:08.098Z,74
2023-05-17T03:40:09.121Z,74
2023-05-17T03:41:09.234Z,74
2023-05-17T03:42:08.905Z,74
2023-05-17T03:43:09.127Z,74
2023-05-17T03:44:08.344Z,74
2023-05-17T03:45:08.209Z,74
2023-05-17T03:46:08.946Z,74
2023-05-17T03:47:08.901Z,74
2023-05-17T03:48:09.004Z,74
2023-05-17T03:51:08.214Z,74
2023-05-17T03:52:08.854Z,74
2023-05-17T03:53:08.800Z,74
2023-05-17T03:54:08.551Z,74
2023-05-17T03:55:09.224Z,74
2023-05-17T04:00:08.517Z,74
2023-05-17T04:01:09.106Z,74
2023-05-17T04:02:08.323Z,74
2023-05-17T04:03:08.857Z,74
2023-05-17T04:04:07.951Z,74
2023-05-17T04:05:09.240Z,74
2023-05-17T04:08:09.055Z,74
2023-05-17T04:09:08.261Z,74
2023-05-17T04:10:07.504Z,74
2023-05-17T04:11:08.506Z,74
2023-05-17T04:12:09.085Z,74
2023-05-17T04:13:07.560Z,74
2023-05-17T04:14:08.380Z,74
2023-05-17T04:15:08.477Z,74
2023-05-17T04:16:07.965Z,74
2023-05-17T04:17:08.122Z,74
2023-05-17T04:18:08.179Z,74
2023-05-17T04:19:08.921Z,74
2023-05-17T04:22:08.197Z,74
2023-05-17T04:23:08.740Z,74
2023-05-17T04:24:09.124Z,74
2023-05-17T04:25:08.976Z,74
2023-05-17T04:26:08.385Z,74
2023-05-17T04:27:09.950Z,74
2023-05-17T04:28:08.958Z,74
2023-05-17T04:31:08.577Z,74
2023-05-17T04:32:08.948Z,74
2023-05-17T04:33:10.117Z,74
2023-05-17T04:34:08.451Z,74
2023-05-17T04:35:08.912Z,74
2023-05-17T04:36:07.963Z,74
2023-05-17T04:37:08.733Z,74
2023-05-17T04:38:08.770Z,74
2023-05-17T04:39:08.151Z,74
2023-05-17T04:40:09.063Z,74
2023-05-17T04:41:08.082Z,74
2023-05-17T04:42:08.759Z,74
2023-05-17T04:43:08.983Z,74
2023-05-17T04:44:08.779Z,74
2023-05-17T04:45:07.890Z,74
2023-05-17T04:46:08.965Z,74
2023-05-17T04:47:08.293Z,74
2023-05-17T04:48:08.862Z,74
2023-05-17T04:49:08.847Z,74
2023-05-17T04:51:08.921Z,74
2023-05-17T04:52:10.470Z,74
2023-05-17T04:53:08.727Z,74
2023-05-17T04:54:08.899Z,74
2023-05-17T05:00:08.511Z,74
2023-05-17T05:01:08.981Z,74
2023-05-17T05:02:08.100Z,74
2023-05-17T05:03:09.189Z,74
2023-05-17T05:04:09.808Z,74
2023-05-17T05:05:08.921Z,74
2023-05-17T05:06:08.907Z,74
2023-05-17T05:07:09.078Z,74
2023-05-17T05:08:08.532Z,74
2023-05-17T05:11:08.243Z,74
2023-05-17T05:12:07.267Z,74
2023-05-17T05:14:08.285Z,74
2023-05-17T05:19:09.305Z,74
2023-05-17T05:20:10.020Z,74
2023-05-17T05:21:08.223Z,74
2023-05-17T05:22:08.531Z,74
2023-05-17T05:23:09.114Z,74
2023-05-17T05:24:08.680Z,74
2023-05-17T05:25:08.919Z,74
2023-05-17T05:27:11.243Z,75
2023-05-17T05:30:08.100Z,74
2023-05-17T05:31:08.884Z,75
2023-05-17T05:32:09.031Z,75
2023-05-17T05:33:09.743Z,75
2023-05-17T05:34:08.994Z,75
2023-05-17T05:35:08.984Z,75
2023-05-17T05:36:09.025Z,75
2023-05-17T05:37:09.081Z,75
2023-05-17T05:39:11.315Z,75
2023-05-17T05:40:08.676Z,75
2023-05-17T05:41:07.705Z,75
2023-05-17T05:42:08.813Z,75
2023-05-17T05:43:09.607Z,75
2023-05-17T05:44:08.555Z,75
2023-05-17T05:45:08.813Z,75
2023-05-17T05:46:08.581Z,75
2023-05-17T05:47:08.727Z,75
2023-05-17T05:48:08.685Z,75
2023-05-17T05:51:08.508Z,75
2023-05-17T05:52:08.099Z,75
2023-05-17T05:53:24.014Z,75
2023-05-17T05:55:08.644Z,75
2023-05-17T05:56:08.478Z,75
2023-05-17T05:57:08.261Z,75
2023-05-17T05:58:08.499Z,75
2023-05-17T05:59:08.816Z,75
2023-05-17T06:00:08.432Z,75
2023-05-17T06:01:11.184Z,75
2023-05-17T06:02:08.804Z,75
2023-05-17T06:03:09.480Z,75
2023-05-17T06:05:07.529Z,75
2023-05-17T06:06:08.887Z,75
2023-05-17T06:07:08.474Z,75
2023-05-17T06:08:07.112Z,75
2023-05-17T06:09:08.284Z,75
2023-05-17T06:10:08.118Z,75
2023-05-17T06:11:07.255Z,75
2023-05-17T06:12:08.121Z,75
2023-05-17T06:13:09.203Z,75
2023-05-17T06:14:09.190Z,75
2023-05-17T06:17:08.852Z,74
2023-05-17T06:18:09.689Z,74
2023-05-17T06:19:09.348Z,74
2023-05-17T06:23:08.616Z,74
2023-05-17T06:24:11.360Z,74
2023-05-17T06:28:08.171Z,74
2023-05-17T06:29:08.578Z,74
2023-05-17T06:30:11.957Z,74
2023-05-17T06:31:09.204Z,74
2023-05-17T06:34:08.199Z,73
2023-05-17T06:35:09.045Z,73
2023-05-17T06:36:09.998Z,73
2023-05-17T06:39:08.670Z,73
2023-05-17T06:40:21.773Z,73
2023-05-17T06:42:08.577Z,73
2023-05-17T06:43:09.239Z,73
2023-05-17T06:44:08.226Z,73
2023-05-17T06:45:08.885Z,73
2023-05-17T06:46:08.376Z,72
2023-05-17T06:47:08.690Z,72
2023-05-17T06:48:08.530Z,72
2023-05-17T06:49:08.826Z,72
2023-05-17T06:52:08.081Z,72
2023-05-17T06:57:08.488Z,72
2023-05-17T06:58:08.692Z,71
2023-05-17T06:59:08.907Z,71
2023-05-17T07:00:08.218Z,71
2023-05-17T07:01:07.547Z,71
2023-05-17T07:03:08.589Z,71
2023-05-17T07:04:07.829Z,70
2023-05-17T07:05:08.390Z,70
2023-05-17T07:06:08.318Z,70
2023-05-17T07:07:08.634Z,70
2023-05-17T07:08:09.142Z,70
2023-05-17T07:09:09.023Z,70
2023-05-17T07:10:08.957Z,70
2023-05-17T07:11:08.215Z,70
2023-05-17T07:12:09.066Z,70
2023-05-17T07:13:09.069Z,69
2023-05-17T07:16:09.189Z,69
2023-05-17T07:17:08.918Z,69
2023-05-17T07:18:09.390Z,69
2023-05-17T07:19:09.731Z,69
2023-05-17T07:20:09.074Z,69
2023-05-17T07:21:08.517Z,69
2023-05-17T07:22:08.720Z,69
2023-05-17T07:23:09.086Z,69
2023-05-17T07:24:08.403Z,68
2023-05-17T07:25:08.734Z,68
2023-05-17T07:26:09.024Z,68
2023-05-17T07:29:09.593Z,68
2023-05-17T07:30:07.999Z,68
2023-05-17T07:31:08.286Z,68
2023-05-17T07:32:08.413Z,68
2023-05-17T07:33:07.577Z,68
2023-05-17T07:34:09.008Z,68
2023-05-17T07:36:07.851Z,68
2023-05-17T07:37:08.570Z,68
2023-05-17T07:38:08.696Z,68
2023-05-17T07:39:08.665Z,67
2023-05-17T07:41:08.478Z,67
2023-05-17T07:42:10.083Z,67
2023-05-17T07:43:08.653Z,67
2023-05-17T07:46:08.529Z,68
2023-05-17T07:47:08.735Z,68
2023-05-17T07:48:08.705Z,67
2023-05-17T07:49:08.980Z,67
2023-05-17T07:51:08.373Z,67
2023-05-17T07:52:09.008Z,67
2023-05-17T07:53:09.118Z,67
2023-05-17T07:54:09.305Z,67
2023-05-17T07:55:08.590Z,67
2023-05-17T07:56:09.326Z,67
2023-05-17T07:57:07.380Z,67
2023-05-17T07:58:08.474Z,67
2023-05-17T07:59:08.219Z,67
2023-05-17T08:02:09.101Z,67
2023-05-17T08:03:09.328Z,66
2023-05-17T08:04:09.527Z,66
2023-05-17T08:05:08.795Z,66
2023-05-17T08:06:09.021Z,66
2023-05-17T08:07:08.921Z,66
2023-05-17T08:08:09.013Z,66
2023-05-17T08:09:09.179Z,66
2023-05-17T08:12:08.757Z,66
2023-05-17T08:13:09.874Z,65
2023-05-17T08:14:08.766Z,65
2023-05-17T08:16:17.399Z,65
2023-05-17T08:18:11.672Z,64
2023-05-17T08:19:08.515Z,64
2023-05-17T08:20:08.880Z,64
2023-05-17T08:22:08.296Z,64
2023-05-17T08:23:08.748Z,64
2023-05-17T08:24:10.699Z,64
2023-05-17T08:25:09.259Z,64
2023-05-17T08:26:09.560Z,64
2023-05-17T08:29:07.797Z,64
2023-05-17T08:32:07.635Z,64
2023-05-17T08:33:09.174Z,63
2023-05-17T08:34:08.564Z,63
2023-05-17T08:35:08.593Z,63
2023-05-17T08:36:08.541Z,63
2023-05-17T08:37:08.565Z,63
2023-05-17T08:38:08.221Z,63
2023-05-17T08:39:08.898Z,63
2023-05-17T08:41:08.256Z,63
2023-05-17T08:42:08.772Z,63
2023-05-17T08:43:08.951Z,63
2023-05-17T08:44:07.899Z,63
2023-05-17T08:45:08.316Z,63
2023-05-17T08:46:08.577Z,63
2023-05-17T08:47:08.819Z,63
2023-05-17T08:48:09.236Z,63
2023-05-17T08:49:08.572Z,62
2023-05-17T08:50:08.690Z,62
2023-05-17T08:51:08.959Z,62
2023-05-17T08:52:09.087Z,62
2023-05-17T08:53:08.786Z,62
2023-05-17T08:54:09.072Z,62
2023-05-17T08:55:08.305Z,62
2023-05-17T08:56:08.733Z,62
2023-05-17T08:57:09.056Z,62
2023-05-17T08:58:08.258Z,62
2023-05-17T08:59:09.094Z,62
2023-05-17T09:00:09.227Z,62
2023-05-17T09:01:08.127Z,62
2023-05-17T09:02:09.242Z,62
2023-05-17T09:03:09.555Z,62
2023-05-17T09:07:09.189Z,61
2023-05-17T09:08:08.934Z,61
2023-05-17T09:09:08.552Z,61
2023-05-17T09:10:08.804Z,61
2023-05-17T09:11:08.416Z,61
2023-05-17T09:12:08.877Z,61
2023-05-17T09:13:09.041Z,61
2023-05-17T09:14:08.433Z,61
2023-05-17T09:15:08.744Z,61
2023-05-17T09:16:08.638Z,61
2023-05-17T09:20:08.704Z,61
2023-05-17T09:21:08.798Z,61
2023-05-17T09:22:08.904Z,61
2023-05-17T09:23:08.927Z,61
2023-05-17T09:24:12.575Z,60
2023-05-17T09:30:08.277Z,59
2023-05-17T09:31:07.600Z,59
2023-05-17T09:32:08.311Z,59
2023-05-17T09:33:08.341Z,59
2023-05-17T09:34:07.733Z,59
2023-05-17T09:35:08.729Z,59
2023-05-17T09:36:08.335Z,59
2023-05-17T09:37:08.291Z,59
2023-05-17T09:38:08.682Z,59
2023-05-17T09:39:08.883Z,59
2023-05-17T09:40:08.279Z,59
2023-05-17T09:43:09.169Z,59
2023-05-17T09:44:08.477Z,58
2023-05-17T09:45:08.870Z,58
2023-05-17T09:46:08.840Z,58
2023-05-17T09:47:09.047Z,58
2023-05-17T09:48:08.541Z,58
2023-05-17T09:49:09.319Z,57
2023-05-17T09:50:08.824Z,58
2023-05-17T09:51:08.916Z,57
2023-05-17T09:54:08.112Z,57
2023-05-17T09:55:09.104Z,57
2023-05-17T09:56:07.971Z,57
2023-05-17T09:57:08.157Z,57
2023-05-17T09:58:08.981Z,57
2023-05-17T09:59:08.895Z,57
2023-05-17T10:00:08.716Z,57
2023-05-17T10:01:09.189Z,57
2023-05-17T10:02:08.591Z,56
2023-05-17T10:03:08.652Z,56
2023-05-17T10:04:09.050Z,56
2023-05-17T10:05:08.693Z,56
2023-05-17T10:08:08.727Z,56
2023-05-17T10:09:08.509Z,55
2023-05-17T10:10:08.727Z,55
2023-05-17T10:11:09.136Z,55
2023-05-17T10:12:08.387Z,55
2023-05-17T10:13:08.565Z,55
2023-05-17T10:14:08.747Z,55
2023-05-17T10:15:09.222Z,55
2023-05-17T10:16:08.930Z,56
2023-05-17T10:18:08.087Z,55
2023-05-17T10:19:09.390Z,55
2023-05-17T10:20:09.196Z,55
2023-05-17T10:21:07.653Z,55
2023-05-17T10:22:28.242Z,55
2023-05-17T10:24:08.459Z,56
2023-05-17T10:25:08.539Z,56
2023-05-17T10:27:07.983Z,56
2023-05-17T10:28:08.706Z,56
2023-05-17T10:29:08.559Z,56
2023-05-17T10:30:08.376Z,56
2023-05-17T10:31:08.218Z,55
2023-05-17T10:32:08.453Z,55
2023-05-17T10:33:09.577Z,56
2023-05-17T10:35:18.565Z,56
2023-05-17T10:37:08.900Z,56
2023-05-17T10:38:09.139Z,56
2023-05-17T10:39:08.507Z,56
2023-05-17T10:40:08.591Z,56
2023-05-17T10:41:08.219Z,56
2023-05-17T10:42:18.734Z,55
2023-05-17T10:44:07.887Z,55
2023-05-17T10:45:09.176Z,55
2023-05-17T10:46:08.800Z,55
2023-05-17T10:47:08.022Z,55
2023-05-17T10:48:09.372Z,55
2023-05-17T10:49:09.033Z,55
2023-05-17T10:51:08.747Z,55
2023-05-17T10:52:09.099Z,56
2023-05-17T10:53:08.755Z,56
2023-05-17T10:54:09.023Z,57
2023-05-17T10:55:08.729Z,57
2023-05-17T10:58:08.492Z,57
2023-05-17T10:59:08.408Z,57
2023-05-17T11:00:08.915Z,57
2023-05-17T11:01:08.369Z,57
2023-05-17T11:02:08.546Z,56
2023-05-17T11:03:08.984Z,56
2023-05-17T11:04:08.424Z,56
2023-05-17T11:05:07.975Z,56
2023-05-17T11:06:12.837Z,56
2023-05-17T11:08:07.924Z,55
2023-05-17T11:09:08.647Z,55
2023-05-17T11:10:08.555Z,55
2023-05-17T11:11:08.493Z,55
2023-05-17T11:12:08.287Z,56
2023-05-17T11:13:08.672Z,56
2023-05-17T11:15:10.839Z,56
2023-05-17T11:16:08.553Z,56
2023-05-17T11:17:08.755Z,56
2023-05-17T11:18:26.451Z,56
2023-05-17T11:20:09.436Z,57
2023-05-17T11:21:09.152Z,57
2023-05-17T11:22:08.945Z,57
2023-05-17T11:23:09.121Z,56
2023-05-17T11:24:08.290Z,56
2023-05-17T11:25:08.695Z,56
2023-05-17T11:26:21.773Z,56
2023-05-17T11:29:07.277Z,56
2023-05-17T11:30:08.584Z,56
2023-05-17T11:31:08.171Z,57
2023-05-17T11:32:07.187Z,57
2023-05-17T11:33:33.433Z,56
2023-05-17T11:38:08.190Z,55
2023-05-17T11:39:14.639Z,55
2023-05-17T11:41:19.632Z,54
2023-05-17T11:43:08.923Z,54
2023-05-17T11:44:08.599Z,55
2023-05-17T11:45:09.245Z,55
2023-05-17T11:46:08.093Z,55
2023-05-17T11:47:08.803Z,56
2023-05-17T11:48:09.081Z,55
2023-05-17T11:49:08.983Z,55
2023-05-17T11:50:08.662Z,55
2023-05-17T11:51:09.045Z,55
2023-05-17T11:52:07.925Z,55
2023-05-17T11:53:09.147Z,55
2023-05-17T11:54:08.462Z,55
2023-05-17T11:55:08.141Z,55
2023-05-17T11:56:08.797Z,55
2023-05-17T11:57:08.614Z,54
2023-05-17T12:00:08.559Z,55
2023-05-17T12:01:08.449Z,55
2023-05-17T12:02:08.757Z,55
2023-05-17T12:03:09.142Z,55
2023-05-17T12:04:08.641Z,55
2023-05-17T12:05:08.946Z,55
2023-05-17T12:06:09.224Z,54
2023-05-17T12:07:08.417Z,54
2023-05-17T12:08:09.018Z,53
2023-05-17T12:09:08.619Z,52
2023-05-17T12:10:08.863Z,53
2023-05-17T12:11:08.239Z,52
2023-05-17T12:12:08.423Z,53
2023-05-17T12:13:08.691Z,52
2023-05-17T12:14:09.053Z,52
2023-05-17T12:15:08.450Z,52
2023-05-17T12:16:08.519Z,52
2023-05-17T12:17:08.683Z,52
2023-05-17T12:19:07.877Z,52
2023-05-17T12:20:09.084Z,51
2023-05-17T12:21:08.382Z,52
2023-05-17T12:22:07.356Z,52
2023-05-17T12:23:09.298Z,53
2023-05-17T12:24:09.210Z,53
2023-05-17T12:25:09.006Z,52
2023-05-17T12:26:08.553Z,52
2023-05-17T12:27:08.797Z,53
2023-05-17T12:28:09.078Z,53
2023-05-17T12:30:08.220Z,53
2023-05-17T12:31:08.610Z,52
2023-05-17T12:32:08.927Z,52
2023-05-17T12:33:09.418Z,53
2023-05-17T12:34:08.407Z,53
2023-05-17T12:35:10.177Z,53
2023-05-17T12:36:09.027Z,53
2023-05-17T12:37:08.690Z,53
2023-05-17T12:38:08.923Z,53
2023-05-17T12:39:08.811Z,53
2023-05-17T12:41:08.296Z,52
2023-05-17T12:42:08.804Z,52
2023-05-17T12:43:08.922Z,52
2023-05-17T12:44:19.380Z,52
2023-05-17T12:46:10.438Z,52
2023-05-17T12:47:08.626Z,52
2023-05-17T12:48:08.312Z,53
2023-05-17T12:49:08.871Z,53
2023-05-17T12:51:08.384Z,53
2023-05-17T12:54:08.061Z,53
2023-05-17T12:55:09.192Z,53
2023-05-17T12:56:08.381Z,53
2023-05-17T12:57:09.349Z,53
2023-05-17T12:59:08.684Z,53
2023-05-17T13:00:08.424Z,53
2023-05-17T13:01:08.918Z,53
2023-05-17T13:02:08.325Z,53
2023-05-17T13:03:08.999Z,53
2023-05-17T13:04:09.628Z,53
2023-05-17T13:05:08.515Z,53
2023-05-17T13:06:08.656Z,53
2023-05-17T13:07:09.235Z,53
2023-05-17T13:08:08.195Z,53
2023-05-17T13:09:08.576Z,53
2023-05-17T13:10:08.938Z,53
2023-05-17T13:14:08.257Z,53
2023-05-17T13:15:07.366Z,53
2023-05-17T13:16:09.170Z,53
2023-05-17T13:17:09.143Z,53
2023-05-17T13:18:09.709Z,53
2023-05-17T13:19:08.484Z,53
2023-05-17T13:20:12.959Z,53
2023-05-17T13:23:08.957Z,53
2023-05-17T13:24:09.113Z,53
2023-05-17T13:25:08.390Z,53
2023-05-17T13:26:08.982Z,53
2023-05-17T13:27:08.250Z,53
2023-05-17T13:28:08.631Z,53
2023-05-17T13:29:08.702Z,53
2023-05-17T13:30:09.104Z,53
2023-05-17T13:31:08.316Z,53
2023-05-17T13:32:08.466Z,53
2023-05-17T13:33:09.008Z,53
2023-05-17T13:34:09.069Z,53
2023-05-17T13:35:08.463Z,53
2023-05-17T13:36:08.729Z,53
2023-05-17T13:37:13.307Z,53
2023-05-17T13:38:07.690Z,53
2023-05-17T13:39:08.403Z,53
2023-05-17T13:40:09.286Z,53
2023-05-17T13:41:09.106Z,53
2023-05-17T13:42:08.485Z,53
2023-05-17T13:43:09.760Z,53
2023-05-17T13:45:08.298Z,53
2023-05-17T13:46:08.577Z,53
2023-05-17T13:47:08.873Z,53
2023-05-17T13:48:09.876Z,53
2023-05-17T13:49:08.518Z,53
2023-05-17T13:50:08.571Z,53
2023-05-17T13:51:08.452Z,53
2023-05-17T13:52:08.470Z,53
2023-05-17T13:54:11.575Z,53
2023-05-17T13:55:08.491Z,53
2023-05-17T13:56:09.040Z,53
2023-05-17T13:59:07.619Z,52
2023-05-17T14:00:08.628Z,52
2023-05-17T14:01:08.203Z,52
2023-05-17T14:04:08.673Z,52
2023-05-17T14:05:07.175Z,52
2023-05-17T14:06:09.628Z,52
2023-05-17T14:07:09.223Z,52
2023-05-17T14:08:08.986Z,52
2023-05-17T14:11:08.893Z,52
2023-05-17T14:12:09.060Z,52
2023-05-17T14:13:08.058Z,52
2023-05-17T14:14:08.962Z,52
2023-05-17T14:15:09.046Z,53
2023-05-17T14:16:08.427Z,53
2023-05-17T14:17:08.500Z,53
2023-05-17T14:18:09.213Z,53
2023-05-17T14:19:11.520Z,53
2023-05-17T14:20:08.604Z,53
2023-05-17T14:21:08.727Z,53
2023-05-17T14:22:09.117Z,53
2023-05-17T14:23:08.433Z,53
2023-05-17T14:24:08.569Z,53
2023-05-17T14:25:07.837Z,53
2023-05-17T14:26:08.810Z,53
2023-05-17T14:27:08.666Z,53
2023-05-17T14:28:07.746Z,53
2023-05-17T14:29:07.864Z,53
2023-05-17T14:30:08.751Z,53
2023-05-17T14:32:08.551Z,54
2023-05-17T14:33:09.119Z,54
2023-05-17T14:34:09.173Z,53
2023-05-17T14:35:08.479Z,53
2023-05-17T14:36:08.553Z,53
2023-05-17T14:37:08.901Z,54
2023-05-17T14:38:08.334Z,54
2023-05-17T14:39:08.352Z,54
2023-05-17T14:40:11.315Z,54
2023-05-17T14:43:08.442Z,54
2023-05-17T14:44:09.006Z,54
2023-05-17T14:45:08.413Z,53
2023-05-17T14:46:08.683Z,53
2023-05-17T14:47:08.591Z,53
2023-05-17T14:48:09.180Z,53
2023-05-17T14:49:09.456Z,53
2023-05-17T14:50:08.516Z,53
2023-05-17T14:51:08.729Z,53
2023-05-17T14:52:08.934Z,53
2023-05-17T14:53:08.213Z,53
2023-05-17T14:54:08.730Z,53
2023-05-17T14:55:09.075Z,53
2023-05-17T14:56:08.923Z,53
2023-05-17T14:57:08.320Z,53
2023-05-17T14:58:08.582Z,53
2023-05-17T14:59:08.201Z,53
2023-05-17T15:00:08.543Z,53
2023-05-17T15:01:12.410Z,53
2023-05-17T15:02:09.265Z,53
2023-05-17T15:05:08.814Z,54
2023-05-17T15:08:08.936Z,54
2023-05-17T15:09:09.142Z,54
2023-05-17T15:10:08.494Z,54
2023-05-17T15:11:08.760Z,54
2023-05-17T15:12:09.002Z,54
2023-05-17T15:13:08.340Z,54
2023-05-17T15:14:08.751Z,54
2023-05-17T15:15:09.020Z,54
2023-05-17T15:16:08.832Z,54
2023-05-17T15:18:08.584Z,54
2023-05-17T15:19:09.286Z,54
2023-05-17T15:20:08.579Z,54
2023-05-17T15:21:08.486Z,53
2023-05-17T15:22:08.497Z,53
2023-05-17T15:23:08.569Z,53
2023-05-17T15:24:08.391Z,53
2023-05-17T15:25:08.784Z,53
2023-05-17T15:26:08.291Z,53
2023-05-17T15:27:08.395Z,54
2023-05-17T15:28:07.858Z,54
2023-05-17T15:29:08.443Z,54
2023-05-17T15:30:09.147Z,54
2023-05-17T15:31:08.260Z,54
2023-05-17T15:32:08.096Z,54
2023-05-17T15:33:09.099Z,54
2023-05-17T15:34:08.930Z,54
2023-05-17T15:35:08.067Z,54
2023-05-17T15:36:08.411Z,54
2023-05-17T15:37:07.779Z,54
2023-05-17T15:38:08.301Z,54
2023-05-17T15:39:08.422Z,54
2023-05-17T15:40:08.804Z,54
2023-05-17T15:41:08.021Z,54
2023-05-17T15:44:08.536Z,54
2023-05-17T15:45:07.987Z,54
2023-05-17T15:46:08.161Z,54
2023-05-17T15:47:08.369Z,54
2023-05-17T15:48:08.554Z,54
2023-05-17T15:49:08.880Z,55
2023-05-17T15:50:08.034Z,55
2023-05-17T15:52:08.276Z,55
2023-05-17T15:53:08.802Z,55
2023-05-17T15:54:08.139Z,55
2023-05-17T15:56:08.567Z,55
2023-05-17T15:58:08.170Z,55
2023-05-17T15:59:08.278Z,55
2023-05-17T16:00:08.421Z,55
2023-05-17T16:03:08.034Z,55
2023-05-17T16:04:08.219Z,55
2023-05-17T16:05:08.583Z,55
2023-05-17T16:07:07.948Z,55
2023-05-17T16:08:08.044Z,55
2023-05-17T16:09:08.448Z,55
2023-05-17T16:10:08.378Z,55
2023-05-17T16:11:08.131Z,55
2023-05-17T16:12:08.310Z,55
2023-05-17T16:14:07.800Z,55
2023-05-17T16:15:08.401Z,55
2023-05-17T16:16:08.819Z,55
2023-05-17T16:17:07.843Z,55
2023-05-17T16:18:08.768Z,55
2023-05-17T16:19:08.714Z,55
2023-05-17T16:20:08.241Z,55
2023-05-17T16:22:08.156Z,56
2023-05-17T16:23:06.926Z,56
2023-05-17T16:24:08.214Z,56
2023-05-17T16:25:07.974Z,56
2023-05-17T16:26:08.279Z,56
2023-05-17T16:27:10.285Z,56
2023-05-17T16:28:08.020Z,56
2023-05-17T16:29:07.139Z,56
2023-05-17T16:30:07.723Z,56
2023-05-17T16:31:08.093Z,56
2023-05-17T16:32:08.772Z,56
2023-05-17T16:33:10.680Z,56
2023-05-17T16:34:08.048Z,56
2023-05-17T16:35:08.808Z,56
2023-05-17T16:36:08.677Z,56
2023-05-17T16:37:07.956Z,57
2023-05-17T16:38:08.212Z,57
2023-05-17T16:39:09.401Z,57
2023-05-17T16:40:07.954Z,57
2023-05-17T16:41:08.116Z,57
2023-05-17T16:42:08.551Z,57
2023-05-17T16:43:07.850Z,57
2023-05-17T16:44:07.783Z,58
2023-05-17T16:45:09.951Z,58
2023-05-17T16:46:07.895Z,58
2023-05-17T16:47:09.047Z,58
2023-05-17T16:48:08.564Z,58
2023-05-17T16:49:07.679Z,58
2023-05-17T16:50:08.645Z,59
2023-05-17T16:51:08.405Z,59
2023-05-17T16:52:08.466Z,59
2023-05-17T16:53:08.305Z,59
2023-05-17T16:54:08.344Z,59
2023-05-17T16:55:08.500Z,59
2023-05-17T16:56:08.233Z,59
2023-05-17T16:57:10.407Z,59
2023-05-17T16:58:08.669Z,59
2023-05-17T16:59:08.325Z,59
2023-05-17T17:00:07.980Z,59
2023-05-17T17:01:08.396Z,59
2023-05-17T17:02:08.855Z,59
2023-05-17T17:05:08.834Z,60
2023-05-17T17:06:08.339Z,60
2023-05-17T17:07:07.142Z,60
2023-05-17T17:09:10.158Z,60
2023-05-17T17:10:07.445Z,60
2023-05-17T17:11:08.055Z,60
2023-05-17T17:12:25.515Z,60
2023-05-17T17:13:07.197Z,60
2023-05-17T17:14:08.145Z,60
2023-05-17T17:15:10.062Z,60
2023-05-17T17:16:07.903Z,60
2023-05-17T17:17:07.851Z,60
2023-05-17T17:18:08.111Z,60
2023-05-17T17:19:08.114Z,60
2023-05-17T17:20:08.028Z,60
2023-05-17T17:21:10.078Z,61
2023-05-17T17:22:08.800Z,61
2023-05-17T17:23:07.959Z,61
2023-05-17T17:24:09.012Z,61
2023-05-17T17:25:08.958Z,61
2023-05-17T17:27:08.655Z,61
2023-05-17T17:28:08.091Z,61
2023-05-17T17:29:07.990Z,61
2023-05-17T17:30:08.726Z,62
2023-05-17T17:31:07.965Z,62
2023-05-17T17:32:08.312Z,62
2023-05-17T17:33:07.893Z,62
2023-05-17T17:34:08.751Z,62
2023-05-17T17:35:08.074Z,62
2023-05-17T17:36:08.013Z,62
2023-05-17T17:37:08.755Z,62
2023-05-17T17:38:08.582Z,62
2023-05-17T17:39:08.363Z,62